Albion, Idaho
Current Conditions -  °F | °C
As of 3:14 AM on Saturday 20 Dec 2014 (Local Time) from KBYI Reporting Station
Overcast Overcast  
Wind Chill: 30°   Ceiling: 3000
Heat Index: 35°   Visibility: 10mi
Dew Point: 32°   Wind: 6mph
Humidity: 89%   Direction: 210°SSW
Pressure: 30.09"   Gusts: NA
Location:  42.41°N, 113.58°W
Report Text: KBYI 201014Z AUTO 21005KT 10SM BKN030 BKN034 OVC080 02/00 A3009 RMK AO2 T00170000
Loading
Personal Weather Stations






























Interactive Weather Map New forecast layout! Learn more

10-Day Weather Forecast

Advertisements
Track Severe Weather on mobile